Time;durP1;ratioP1;P1;durP2;ratioP2;P2;SDS_P1;SDS_P2;PMS_P1;PMS_P2;Temp;Humidity;BMP_temperature;BMP_pressure;BME280_temperature;BME280_humidity;BME280_pressure;Samples;Min_cycle;Max_cycle;Signal;HPM_P1;HPM_P2
2022/03/30 00:00:30;;;;;;;31.77;11.60;;;;;;;;;;5087056;28;20048;-74
2022/03/30 00:02:56;;;;;;;29.27;11.23;;;;;;;;;;5092788;28;20035;-75
2022/03/30 00:05:23;;;;;;;23.08;11.43;;;;;;;;;;5110889;28;20039;-75
2022/03/30 00:07:52;;;;;;;29.85;12.23;;;;;;;;;;5089552;28;20392;-74
2022/03/30 00:10:19;;;;;;;28.00;10.98;;;;;;;;;;5085231;28;20150;-74
2022/03/30 00:12:45;;;;;;;23.58;11.23;;;;;;;;;;5070970;28;20040;-74
2022/03/30 00:15:11;;;;;;;27.67;11.27;;;;;;;;;;5087486;28;20020;-75
2022/03/30 00:17:37;;;;;;;30.05;11.40;;;;;;;;;;5066008;28;20040;-74
2022/03/30 00:20:03;;;;;;;36.38;11.40;;;;;;;;;;5091054;28;20383;-74
2022/03/30 00:22:29;;;;;;;34.50;12.00;;;;;;;;;;5093138;28;20479;-74
2022/03/30 00:24:55;;;;;;;26.15;11.35;;;;;;;;;;5100344;28;20413;-74
2022/03/30 00:27:22;;;;;;;30.17;13.32;;;;;;;;;;5097545;28;20043;-74
2022/03/30 00:29:48;;;;;;;28.60;11.90;;;;;;;;;;5086225;28;20031;-74
2022/03/30 00:32:14;;;;;;;24.27;11.45;;;;;;;;;;5088973;28;20384;-74
2022/03/30 00:34:41;;;;;;;24.33;10.43;;;;;;;;;;5080774;28;20021;-74
2022/03/30 00:37:08;;;;;;;29.80;13.45;;;;;;;;;;5097845;28;20036;-74
2022/03/30 00:39:34;;;;;;;27.58;10.90;;;;;;;;;;5087702;28;20028;-74
2022/03/30 00:42:00;;;;;;;27.35;11.68;;;;;;;;;;5091075;28;20116;-74
2022/03/30 00:44:26;;;;;;;33.00;13.27;;;;;;;;;;5080663;28;20039;-74
2022/03/30 00:46:53;;;;;;;29.92;12.45;;;;;;;;;;5094525;28;20379;-74
2022/03/30 00:49:19;;;;;;;28.95;11.77;;;;;;;;;;5089973;28;20039;-74
2022/03/30 00:51:45;;;;;;;34.65;13.00;;;;;;;;;;5088270;28;20028;-74
2022/03/30 00:54:11;;;;;;;30.50;11.25;;;;;;;;;;5070229;28;20045;-74
2022/03/30 00:56:40;;;;;;;36.75;13.15;;;;;;;;;;5098801;28;20098;-74
2022/03/30 00:59:06;;;;;;;35.30;11.93;;;;;;;;;;5074482;28;20108;-74
2022/03/30 01:01:35;;;;;;;34.92;12.15;;;;;;;;;;5097010;28;20027;-74
2022/03/30 01:04:05;;;;;;;29.67;13.50;;;;;;;;;;5093231;28;20035;-75
2022/03/30 01:06:31;;;;;;;35.85;13.05;;;;;;;;;;5109591;28;20121;-74
2022/03/30 01:08:57;;;;;;;31.02;12.90;;;;;;;;;;5091767;28;20032;-74
2022/03/30 01:11:23;;;;;;;26.45;13.25;;;;;;;;;;5095841;28;20115;-75
2022/03/30 01:13:51;;;;;;;31.80;14.68;;;;;;;;;;5066449;28;20440;-74
2022/03/30 01:16:20;;;;;;;33.53;14.20;;;;;;;;;;5092082;28;20071;-75
2022/03/30 01:18:47;;;;;;;28.95;14.15;;;;;;;;;;5073406;28;20032;-74
2022/03/30 01:21:13;;;;;;;31.45;14.18;;;;;;;;;;5095363;28;20383;-75
2022/03/30 01:23:39;;;;;;;34.10;14.75;;;;;;;;;;5091004;28;20028;-75
2022/03/30 01:26:06;;;;;;;34.58;13.63;;;;;;;;;;5083474;28;20044;-75
2022/03/30 01:28:32;;;;;;;34.08;13.95;;;;;;;;;;5097612;28;20031;-74
2022/03/30 01:33:44;;;;;;;34.47;14.13;;;;;;;;;;5084763;28;20407;-74
2022/03/30 01:36:10;;;;;;;32.45;14.63;;;;;;;;;;5083195;28;20486;-74
2022/03/30 01:38:36;;;;;;;28.60;13.40;;;;;;;;;;5102756;28;20038;-74
2022/03/30 01:41:02;;;;;;;34.40;13.55;;;;;;;;;;5073790;28;20443;-74
2022/03/30 01:43:28;;;;;;;27.50;13.32;;;;;;;;;;5094939;28;20028;-74
2022/03/30 01:45:55;;;;;;;31.83;13.32;;;;;;;;;;5102639;28;20050;-74
2022/03/30 01:48:21;;;;;;;29.70;12.68;;;;;;;;;;5061926;28;20513;-74
2022/03/30 01:50:47;;;;;;;30.45;12.38;;;;;;;;;;5081332;28;20464;-74
2022/03/30 01:53:14;;;;;;;30.38;13.07;;;;;;;;;;5069256;28;20090;-74
2022/03/30 01:55:40;;;;;;;33.08;12.68;;;;;;;;;;5096679;28;20055;-74
2022/03/30 01:58:06;;;;;;;27.70;12.98;;;;;;;;;;5097684;28;20383;-74
2022/03/30 02:00:32;;;;;;;29.38;12.45;;;;;;;;;;5067177;28;20085;-74
2022/03/30 02:02:59;;;;;;;36.30;13.90;;;;;;;;;;5074774;28;20043;-74
2022/03/30 02:05:25;;;;;;;32.33;13.80;;;;;;;;;;5111222;28;20459;-74
2022/03/30 02:07:51;;;;;;;30.17;12.93;;;;;;;;;;5092640;28;20064;-74
2022/03/30 02:10:18;;;;;;;32.83;12.60;;;;;;;;;;5091236;28;20089;-74
2022/03/30 02:12:44;;;;;;;37.65;14.18;;;;;;;;;;5089581;28;20081;-74
2022/03/30 02:15:10;;;;;;;49.78;15.18;;;;;;;;;;5083342;28;20065;-74
2022/03/30 02:17:37;;;;;;;47.28;15.55;;;;;;;;;;5094257;28;20073;-74
2022/03/30 02:20:03;;;;;;;32.25;15.20;;;;;;;;;;5084540;28;20035;-75
2022/03/30 02:22:29;;;;;;;32.60;13.90;;;;;;;;;;5112634;28;20035;-74
2022/03/30 02:24:56;;;;;;;30.80;14.43;;;;;;;;;;5086872;28;20053;-74
2022/03/30 02:27:22;;;;;;;32.28;14.90;;;;;;;;;;5090503;28;20058;-76
2022/03/30 02:29:48;;;;;;;34.33;14.15;;;;;;;;;;5083122;28;20040;-75
2022/03/30 02:32:15;;;;;;;50.60;21.45;;;;;;;;;;5100339;28;20031;-77
2022/03/30 02:34:42;;;;;;;31.38;15.48;;;;;;;;;;5106397;28;20566;-74
2022/03/30 02:37:08;;;;;;;34.78;15.25;;;;;;;;;;5098390;28;20453;-73
2022/03/30 02:39:34;;;;;;;33.53;14.30;;;;;;;;;;5086133;28;20030;-73
2022/03/30 02:42:01;;;;;;;35.08;14.88;;;;;;;;;;5097442;28;20043;-73
2022/03/30 02:44:27;;;;;;;29.90;14.95;;;;;;;;;;5091745;28;20028;-73
2022/03/30 02:46:53;;;;;;;34.28;15.00;;;;;;;;;;5093762;28;20525;-73
2022/03/30 02:49:20;;;;;;;29.50;14.80;;;;;;;;;;5090411;28;20058;-73
2022/03/30 02:51:47;;;;;;;38.83;15.68;;;;;;;;;;5100387;28;20165;-73
2022/03/30 02:54:13;;;;;;;32.33;14.52;;;;;;;;;;5092366;28;20047;-74
2022/03/30 02:56:39;;;;;;;34.80;15.45;;;;;;;;;;5067898;28;20587;-73
2022/03/30 02:59:05;;;;;;;31.60;15.85;;;;;;;;;;5094114;28;20031;-74
2022/03/30 03:01:31;;;;;;;35.55;14.43;;;;;;;;;;5092324;28;20112;-74
2022/03/30 03:03:57;;;;;;;33.40;14.38;;;;;;;;;;5088059;28;20055;-74
2022/03/30 03:06:23;;;;;;;39.67;14.55;;;;;;;;;;5091360;28;20024;-74
2022/03/30 03:08:50;;;;;;;41.38;13.88;;;;;;;;;;5083811;28;20531;-74
2022/03/30 03:11:16;;;;;;;37.97;14.77;;;;;;;;;;5105847;28;20047;-74
2022/03/30 03:13:42;;;;;;;32.85;13.70;;;;;;;;;;5089277;28;20380;-74
2022/03/30 03:16:08;;;;;;;23.00;12.60;;;;;;;;;;5085728;28;20028;-74
2022/03/30 03:18:35;;;;;;;26.40;11.07;;;;;;;;;;5083484;28;20024;-74
2022/03/30 03:21:01;;;;;;;20.25;8.75;;;;;;;;;;5101903;28;20261;-74
2022/03/30 03:23:27;;;;;;;10.63;4.28;;;;;;;;;;5081793;28;20165;-74
2022/03/30 03:25:54;;;;;;;8.77;2.92;;;;;;;;;;5092566;28;20129;-74
2022/03/30 03:28:20;;;;;;;5.03;2.20;;;;;;;;;;5084065;28;20034;-73
2022/03/30 03:30:46;;;;;;;2.92;1.70;;;;;;;;;;5091217;28;20020;-73
2022/03/30 03:33:12;;;;;;;4.05;1.40;;;;;;;;;;5091725;28;20059;-73
2022/03/30 03:35:38;;;;;;;4.18;1.60;;;;;;;;;;5090959;28;20024;-73
2022/03/30 03:38:05;;;;;;;5.43;1.17;;;;;;;;;;5072261;28;20500;-73
2022/03/30 03:40:32;;;;;;;2.78;1.30;;;;;;;;;;5084685;28;20035;-73
2022/03/30 03:42:59;;;;;;;2.72;1.10;;;;;;;;;;5096902;28;20096;-73
2022/03/30 03:45:25;;;;;;;7.05;1.45;;;;;;;;;;5093977;28;20028;-74
2022/03/30 03:47:52;;;;;;;2.28;0.70;;;;;;;;;;5090361;28;20080;-74
2022/03/30 03:50:19;;;;;;;2.08;0.60;;;;;;;;;;5090400;28;20039;-74
2022/03/30 03:52:45;;;;;;;1.65;0.40;;;;;;;;;;5103417;28;20047;-73
2022/03/30 03:55:12;;;;;;;2.25;1.23;;;;;;;;;;5091779;28;20044;-73
2022/03/30 03:57:38;;;;;;;3.25;0.47;;;;;;;;;;5077822;28;20031;-73
2022/03/30 04:00:05;;;;;;;1.10;0.45;;;;;;;;;;5099445;28;20072;-74
2022/03/30 04:02:31;;;;;;;0.98;0.50;;;;;;;;;;5112356;28;20047;-74
2022/03/30 04:04:57;;;;;;;2.03;0.30;;;;;;;;;;5095145;28;20031;-74
2022/03/30 04:07:23;;;;;;;1.42;0.30;;;;;;;;;;5076161;28;20124;-74
2022/03/30 04:09:50;;;;;;;1.45;0.40;;;;;;;;;;5091303;28;20016;-74
2022/03/30 04:12:16;;;;;;;2.40;0.30;;;;;;;;;;5082306;28;20403;-74
2022/03/30 04:14:42;;;;;;;4.70;0.45;;;;;;;;;;5082327;28;20024;-74
2022/03/30 04:17:08;;;;;;;1.50;0.43;;;;;;;;;;5094851;28;20032;-74
2022/03/30 04:19:34;;;;;;;1.70;0.38;;;;;;;;;;5085680;28;20479;-73
2022/03/30 04:22:01;;;;;;;3.15;0.38;;;;;;;;;;5092316;28;20039;-74
2022/03/30 04:24:28;;;;;;;3.80;0.50;;;;;;;;;;5099904;28;20020;-74
2022/03/30 04:26:54;;;;;;;2.42;0.50;;;;;;;;;;5082051;28;20020;-74
2022/03/30 04:29:20;;;;;;;2.67;0.40;;;;;;;;;;5091680;28;20540;-74
2022/03/30 04:31:46;;;;;;;0.75;0.60;;;;;;;;;;5077820;28;20055;-73
2022/03/30 04:34:13;;;;;;;2.53;0.60;;;;;;;;;;5081292;28;20048;-73
2022/03/30 04:36:39;;;;;;;2.40;0.40;;;;;;;;;;5084043;28;20524;-73
2022/03/30 04:39:05;;;;;;;1.83;0.50;;;;;;;;;;5091689;28;20036;-73
2022/03/30 04:41:31;;;;;;;3.08;0.47;;;;;;;;;;5098476;28;20019;-73
2022/03/30 04:43:57;;;;;;;1.48;0.30;;;;;;;;;;5091000;28;20020;-74
2022/03/30 04:46:23;;;;;;;3.70;0.60;;;;;;;;;;5084550;28;20052;-74
2022/03/30 04:48:49;;;;;;;4.75;0.70;;;;;;;;;;5086433;28;20043;-74
2022/03/30 04:51:15;;;;;;;0.65;0.40;;;;;;;;;;5092408;28;20038;-73
2022/03/30 04:53:41;;;;;;;3.60;0.40;;;;;;;;;;5098650;28;20063;-73
2022/03/30 04:56:07;;;;;;;0.68;0.40;;;;;;;;;;5082151;28;20032;-72
2022/03/30 04:58:33;;;;;;;2.72;0.55;;;;;;;;;;5105226;28;20458;-73
2022/03/30 05:00:59;;;;;;;3.55;0.93;;;;;;;;;;5059658;28;20032;-74
2022/03/30 05:03:25;;;;;;;6.30;0.55;;;;;;;;;;5095181;28;20050;-74
2022/03/30 05:05:51;;;;;;;4.32;0.68;;;;;;;;;;5079279;28;20033;-74
2022/03/30 05:08:17;;;;;;;3.03;0.40;;;;;;;;;;5097886;28;20032;-73
2022/03/30 05:10:47;;;;;;;4.57;0.70;;;;;;;;;;5091266;28;20064;-73
2022/03/30 05:13:13;;;;;;;4.85;0.43;;;;;;;;;;5072945;28;20043;-74
2022/03/30 05:15:39;;;;;;;2.17;0.52;;;;;;;;;;5080205;28;20028;-73
2022/03/30 05:18:06;;;;;;;2.33;0.50;;;;;;;;;;5096681;28;20027;-73
2022/03/30 05:20:33;;;;;;;1.27;0.45;;;;;;;;;;5093889;28;20059;-73
2022/03/30 05:22:59;;;;;;;7.90;1.00;;;;;;;;;;5071551;28;20032;-73
2022/03/30 05:25:25;;;;;;;1.77;0.45;;;;;;;;;;5092551;28;20439;-72
2022/03/30 05:27:51;;;;;;;4.53;0.80;;;;;;;;;;5097757;28;20055;-72
2022/03/30 05:30:17;;;;;;;3.05;1.23;;;;;;;;;;5094616;28;20113;-72
2022/03/30 05:32:45;;;;;;;4.57;1.73;;;;;;;;;;5083165;28;20376;-73
2022/03/30 05:35:12;;;;;;;10.20;2.00;;;;;;;;;;5075628;28;20234;-72
2022/03/30 05:37:38;;;;;;;4.78;1.90;;;;;;;;;;5107260;28;20369;-72
2022/03/30 05:40:05;;;;;;;5.45;1.90;;;;;;;;;;5089546;28;20027;-72
2022/03/30 05:42:31;;;;;;;4.45;1.90;;;;;;;;;;5091024;28;20043;-73
2022/03/30 05:44:57;;;;;;;4.05;1.90;;;;;;;;;;5085958;28;20024;-73
2022/03/30 05:47:23;;;;;;;6.20;2.35;;;;;;;;;;5082835;28;20041;-74
2022/03/30 05:49:49;;;;;;;9.07;2.42;;;;;;;;;;5089739;28;20050;-72
2022/03/30 05:52:16;;;;;;;3.53;1.88;;;;;;;;;;5083208;28;20052;-72
2022/03/30 05:54:42;;;;;;;4.07;1.50;;;;;;;;;;5090115;28;20040;-72
2022/03/30 05:57:08;;;;;;;2.55;1.40;;;;;;;;;;5080563;28;20064;-72
2022/03/30 05:59:38;;;;;;;1.80;1.05;;;;;;;;;;5094315;28;20036;-72
2022/03/30 06:02:06;;;;;;;8.02;3.90;;;;;;;;;;5088624;28;20473;-72
2022/03/30 06:04:32;;;;;;;33.85;16.98;;;;;;;;;;5084740;28;20028;-73
2022/03/30 06:06:59;;;;;;;29.90;14.52;;;;;;;;;;5058123;28;20025;-72
2022/03/30 06:09:25;;;;;;;8.15;2.35;;;;;;;;;;5084068;28;20024;-72
2022/03/30 06:11:51;;;;;;;3.30;1.00;;;;;;;;;;5083465;28;20024;-72
2022/03/30 06:14:18;;;;;;;2.60;0.50;;;;;;;;;;5081890;28;20032;-73
2022/03/30 06:16:45;;;;;;;3.05;1.20;;;;;;;;;;5092992;28;20032;-72
2022/03/30 06:19:11;;;;;;;1.25;0.70;;;;;;;;;;5107757;27;20138;-73
2022/03/30 06:21:38;;;;;;;2.28;1.00;;;;;;;;;;5091141;28;20439;-72
2022/03/30 06:24:04;;;;;;;4.50;1.10;;;;;;;;;;5092472;28;20115;-72
2022/03/30 06:26:30;;;;;;;2.88;0.90;;;;;;;;;;5094979;28;20028;-73
2022/03/30 06:28:56;;;;;;;5.95;1.05;;;;;;;;;;5098568;28;20036;-74
2022/03/30 06:31:23;;;;;;;6.00;1.00;;;;;;;;;;5085567;28;20047;-72
2022/03/30 06:33:50;;;;;;;9.32;3.83;;;;;;;;;;5083965;28;20031;-78
2022/03/30 06:36:16;;;;;;;12.00;5.82;;;;;;;;;;5097769;28;20016;-78
2022/03/30 06:38:43;;;;;;;5.68;1.40;;;;;;;;;;5102875;28;20042;-73
2022/03/30 06:41:10;;;;;;;2.95;1.02;;;;;;;;;;5093785;28;20110;-72
2022/03/30 06:43:36;;;;;;;3.22;1.33;;;;;;;;;;5083320;28;20039;-72
2022/03/30 06:46:04;;;;;;;4.93;0.93;;;;;;;;;;5084860;28;20050;-73
2022/03/30 06:48:30;;;;;;;5.40;1.85;;;;;;;;;;5082859;28;20109;-72
2022/03/30 06:50:57;;;;;;;3.80;1.10;;;;;;;;;;5089136;28;20032;-73
2022/03/30 06:53:23;;;;;;;5.40;1.10;;;;;;;;;;5108135;28;20059;-73
2022/03/30 06:55:50;;;;;;;5.78;1.15;;;;;;;;;;5097025;28;20048;-72
2022/03/30 06:58:16;;;;;;;4.25;1.50;;;;;;;;;;5102729;28;20573;-72
2022/03/30 07:00:42;;;;;;;3.75;1.70;;;;;;;;;;5092880;28;20024;-73
2022/03/30 07:03:08;;;;;;;3.35;1.25;;;;;;;;;;5089787;28;20530;-73
2022/03/30 07:05:34;;;;;;;8.50;1.30;;;;;;;;;;5081794;28;20420;-72
2022/03/30 07:10:45;;;;;;;5.75;1.05;;;;;;;;;;5092883;28;20135;-72
2022/03/30 07:13:11;;;;;;;5.95;1.30;;;;;;;;;;5092486;28;20032;-73
2022/03/30 07:15:38;;;;;;;5.80;1.30;;;;;;;;;;5089334;28;20028;-72
2022/03/30 07:18:06;;;;;;;6.95;2.90;;;;;;;;;;5086066;28;20051;-74
2022/03/30 07:20:32;;;;;;;8.45;4.20;;;;;;;;;;5098363;28;20360;-74
2022/03/30 07:22:59;;;;;;;5.60;1.13;;;;;;;;;;5093032;28;20101;-73
2022/03/30 07:25:25;;;;;;;8.25;1.65;;;;;;;;;;5097767;28;20036;-75
2022/03/30 07:27:52;;;;;;;5.05;1.10;;;;;;;;;;5099935;28;20036;-71
2022/03/30 07:30:19;;;;;;;2.95;1.00;;;;;;;;;;5092492;28;20432;-72
2022/03/30 07:32:46;;;;;;;3.53;1.08;;;;;;;;;;5087533;28;20048;-72
2022/03/30 07:35:14;;;;;;;3.17;0.93;;;;;;;;;;5094288;28;20471;-72
2022/03/30 07:37:41;;;;;;;3.90;0.70;;;;;;;;;;5084868;28;20429;-72
2022/03/30 07:40:08;;;;;;;2.47;0.80;;;;;;;;;;5097536;28;20494;-72
2022/03/30 07:42:34;;;;;;;5.50;0.77;;;;;;;;;;5097437;28;20032;-72
2022/03/30 07:45:00;;;;;;;4.28;0.80;;;;;;;;;;5091366;28;20528;-72
2022/03/30 07:47:26;;;;;;;5.07;1.20;;;;;;;;;;5080892;28;20032;-72
2022/03/30 07:49:53;;;;;;;3.95;1.33;;;;;;;;;;5087847;28;20089;-72
2022/03/30 07:52:23;;;;;;;4.30;1.55;;;;;;;;;;5079426;28;20044;-72
2022/03/30 07:54:49;;;;;;;5.25;2.22;;;;;;;;;;5099365;28;20053;-72
2022/03/30 07:57:15;;;;;;;4.32;1.60;;;;;;;;;;5093600;28;20027;-72
2022/03/30 07:59:41;;;;;;;3.13;1.38;;;;;;;;;;5082433;28;20056;-71
2022/03/30 08:02:10;;;;;;;6.88;2.10;;;;;;;;;;5088397;28;20032;-73
2022/03/30 08:04:36;;;;;;;12.60;1.50;;;;;;;;;;5079926;28;20077;-75
2022/03/30 08:07:02;;;;;;;4.68;1.00;;;;;;;;;;5077584;28;20127;-72
2022/03/30 08:09:28;;;;;;;9.23;2.42;;;;;;;;;;5091542;28;20479;-72
2022/03/30 08:11:54;;;;;;;6.78;1.00;;;;;;;;;;5079467;28;20480;-73
2022/03/30 08:14:20;;;;;;;3.50;0.95;;;;;;;;;;5078957;28;20145;-73
2022/03/30 08:16:46;;;;;;;5.40;2.10;;;;;;;;;;5091243;28;20039;-73
2022/03/30 08:19:12;;;;;;;7.97;1.52;;;;;;;;;;5091580;28;20085;-72
2022/03/30 08:24:23;;;;;;;8.07;1.00;;;;;;;;;;5096787;28;20067;-73
2022/03/30 08:26:49;;;;;;;3.97;0.82;;;;;;;;;;5088393;28;20145;-73
2022/03/30 08:29:16;;;;;;;4.28;0.80;;;;;;;;;;5080908;28;20028;-73
2022/03/30 08:31:42;;;;;;;5.20;0.90;;;;;;;;;;5091968;28;20032;-73
2022/03/30 08:34:09;;;;;;;6.28;0.77;;;;;;;;;;5099550;28;20057;-73
2022/03/30 08:36:35;;;;;;;3.45;0.90;;;;;;;;;;5083035;28;20052;-73
2022/03/30 08:39:10;;;;;;;5.43;1.40;;;;;;;;;;5091250;28;20078;-73
2022/03/30 08:41:37;;;;;;;3.88;0.80;;;;;;;;;;5090153;28;20044;-73
2022/03/30 08:44:03;;;;;;;6.35;1.10;;;;;;;;;;5099313;28;20035;-73
2022/03/30 08:46:29;;;;;;;9.27;1.90;;;;;;;;;;5088440;28;20046;-73
2022/03/30 08:48:56;;;;;;;3.85;1.20;;;;;;;;;;5073604;28;20032;-73
2022/03/30 08:51:23;;;;;;;3.45;0.90;;;;;;;;;;5070395;28;20123;-73
2022/03/30 08:53:50;;;;;;;5.88;1.10;;;;;;;;;;5089928;28;20127;-73
2022/03/30 08:56:17;;;;;;;3.15;0.63;;;;;;;;;;5095634;28;20038;-73
2022/03/30 08:58:43;;;;;;;7.53;0.70;;;;;;;;;;5083076;28;20036;-73
2022/03/30 09:01:11;;;;;;;7.00;0.68;;;;;;;;;;5089081;28;20028;-73
2022/03/30 09:03:37;;;;;;;5.38;0.80;;;;;;;;;;5091321;28;20054;-73
2022/03/30 09:06:03;;;;;;;9.18;0.77;;;;;;;;;;5073712;28;20036;-73
2022/03/30 09:08:29;;;;;;;3.47;0.90;;;;;;;;;;5097440;28;20055;-73
2022/03/30 09:10:59;;;;;;;7.57;0.82;;;;;;;;;;5089121;28;20028;-73
2022/03/30 09:13:25;;;;;;;7.07;1.55;;;;;;;;;;5088818;28;20028;-73
2022/03/30 09:15:52;;;;;;;6.90;0.73;;;;;;;;;;5088869;28;20085;-73
2022/03/30 09:18:18;;;;;;;6.32;0.73;;;;;;;;;;5072631;28;20052;-72
2022/03/30 09:20:51;;;;;;;5.43;0.70;;;;;;;;;;5085187;28;20480;-72
2022/03/30 09:23:17;;;;;;;3.13;0.63;;;;;;;;;;5083260;28;20052;-73
2022/03/30 09:25:45;;;;;;;3.45;0.60;;;;;;;;;;5090962;28;20032;-73
2022/03/30 09:28:11;;;;;;;7.72;0.88;;;;;;;;;;5087641;28;20032;-73
2022/03/30 09:30:37;;;;;;;3.08;0.60;;;;;;;;;;5091538;28;20097;-73
2022/03/30 09:33:04;;;;;;;8.70;0.70;;;;;;;;;;5060691;28;20033;-72
2022/03/30 09:35:33;;;;;;;3.22;0.70;;;;;;;;;;5089920;28;20028;-72
2022/03/30 09:38:08;;;;;;;1.73;0.50;;;;;;;;;;5086600;28;20047;-72
2022/03/30 09:40:54;;;;;;;5.57;0.63;;;;;;;;;;5084504;28;20383;-72
2022/03/30 09:43:28;;;;;;;1.88;0.30;;;;;;;;;;5087505;28;20036;-72
2022/03/30 09:46:06;;;;;;;2.88;0.60;;;;;;;;;;5099946;28;20024;-72
2022/03/30 09:48:33;;;;;;;4.03;0.50;;;;;;;;;;5079721;28;20033;-72
2022/03/30 09:51:02;;;;;;;3.28;0.40;;;;;;;;;;5080672;28;20055;-72
2022/03/30 09:53:30;;;;;;;3.13;0.55;;;;;;;;;;5084808;28;20372;-72
2022/03/30 09:55:59;;;;;;;4.45;0.60;;;;;;;;;;5076116;28;20509;-72
2022/03/30 09:58:26;;;;;;;4.45;1.05;;;;;;;;;;5080234;28;20033;-73
2022/03/30 10:01:02;;;;;;;3.55;0.50;;;;;;;;;;5089106;28;20056;-72
2022/03/30 10:03:37;;;;;;;4.47;0.93;;;;;;;;;;5090789;28;20432;-73
2022/03/30 10:06:04;;;;;;;1.75;0.47;;;;;;;;;;5072863;28;20078;-73
2022/03/30 10:08:31;;;;;;;3.22;0.43;;;;;;;;;;5090968;28;20077;-73
2022/03/30 10:10:58;;;;;;;11.85;0.93;;;;;;;;;;5088073;28;20024;-75
2022/03/30 10:13:24;;;;;;;2.97;0.60;;;;;;;;;;5083550;28;20043;-74
2022/03/30 10:15:52;;;;;;;2.25;0.70;;;;;;;;;;5080230;28;20020;-72
2022/03/30 10:18:19;;;;;;;1.88;0.52;;;;;;;;;;5080495;28;20027;-73
2022/03/30 10:20:46;;;;;;;3.42;0.63;;;;;;;;;;5088254;28;20111;-73
2022/03/30 10:23:30;;;;;;;4.38;0.50;;;;;;;;;;5083865;28;20040;-72
2022/03/30 10:26:09;;;;;;;3.35;0.52;;;;;;;;;;5074278;28;20032;-73
2022/03/30 10:28:43;;;;;;;4.95;0.60;;;;;;;;;;5059211;28;20035;-73
2022/03/30 10:31:10;;;;;;;4.45;0.47;;;;;;;;;;5072399;28;20312;-73
2022/03/30 10:33:39;;;;;;;9.32;0.70;;;;;;;;;;5089630;28;20463;-73
2022/03/30 10:36:23;;;;;;;6.93;1.13;;;;;;;;;;5098594;28;20353;-72
2022/03/30 10:39:08;;;;;;;10.55;1.00;;;;;;;;;;5096730;28;20099;-72
2022/03/30 10:41:53;;;;;;;3.90;0.70;;;;;;;;;;5088153;28;20103;-73
2022/03/30 10:44:37;;;;;;;4.13;0.57;;;;;;;;;;5094764;28;20032;-72
2022/03/30 10:47:14;;;;;;;3.40;0.82;;;;;;;;;;5085141;28;20028;-73
2022/03/30 10:49:51;;;;;;;6.68;0.55;;;;;;;;;;5098129;28;20055;-73
2022/03/30 10:52:26;;;;;;;1.70;0.40;;;;;;;;;;5112362;27;20035;-74
2022/03/30 10:55:12;;;;;;;4.90;2.45;;;;;;;;;;5091594;28;20396;-74
2022/03/30 10:57:45;;;;;;;10.80;4.57;;;;;;;;;;5080406;28;20024;-73
2022/03/30 11:00:34;;;;;;;1.70;0.38;;;;;;;;;;5085998;28;20028;-74
2022/03/30 11:03:09;;;;;;;35.40;1.52;;;;;;;;;;5088649;28;20067;-73
2022/03/30 11:05:35;;;;;;;6.63;0.60;;;;;;;;;;5089199;28;20019;-74
2022/03/30 11:08:02;;;;;;;1.05;0.43;;;;;;;;;;5094449;28;20114;-74
2022/03/30 11:10:29;;;;;;;5.60;0.50;;;;;;;;;;5099005;28;20483;-75
2022/03/30 11:12:56;;;;;;;3.10;0.70;;;;;;;;;;5089150;28;20185;-84
2022/03/30 11:15:22;;;;;;;7.15;2.33;;;;;;;;;;5092431;28;20056;-74
2022/03/30 11:17:49;;;;;;;1.95;0.52;;;;;;;;;;5090426;28;20032;-73
2022/03/30 11:20:16;;;;;;;2.75;0.40;;;;;;;;;;5088908;28;20451;-72
2022/03/30 11:22:44;;;;;;;1.60;0.40;;;;;;;;;;5088769;28;20115;-73
2022/03/30 11:25:26;;;;;;;3.20;0.43;;;;;;;;;;5091263;28;20105;-73
2022/03/30 11:27:58;;;;;;;1.67;0.50;;;;;;;;;;5079708;28;20038;-72
2022/03/30 11:30:25;;;;;;;2.35;0.60;;;;;;;;;;5091736;28;20290;-72
2022/03/30 11:32:51;;;;;;;2.65;0.68;;;;;;;;;;5091842;28;20529;-72
2022/03/30 11:35:19;;;;;;;2.50;0.60;;;;;;;;;;5091882;28;20032;-72
2022/03/30 11:37:48;;;;;;;2.40;0.45;;;;;;;;;;5059626;28;20017;-72
2022/03/30 11:40:19;;;;;;;2.58;0.40;;;;;;;;;;5060312;28;20040;-73
2022/03/30 11:42:46;;;;;;;3.10;0.40;;;;;;;;;;5101352;28;20055;-72
2022/03/30 11:45:15;;;;;;;3.45;0.70;;;;;;;;;;5086699;28;20043;-72
2022/03/30 11:47:43;;;;;;;2.95;0.63;;;;;;;;;;5090334;28;20561;-72
2022/03/30 11:50:09;;;;;;;2.03;0.40;;;;;;;;;;5083483;28;20028;-72
2022/03/30 11:52:35;;;;;;;2.08;0.63;;;;;;;;;;5118207;27;20028;-73
2022/03/30 11:55:03;;;;;;;6.55;0.98;;;;;;;;;;5083000;28;20718;-73
2022/03/30 11:57:29;;;;;;;1.50;0.50;;;;;;;;;;5079474;28;20059;-72
2022/03/30 12:00:02;;;;;;;2.40;0.50;;;;;;;;;;5087747;28;20032;-72
2022/03/30 12:02:28;;;;;;;3.05;0.52;;;;;;;;;;5082948;28;20043;-72
2022/03/30 12:04:55;;;;;;;3.42;0.60;;;;;;;;;;5084880;28;20036;-72
2022/03/30 12:07:22;;;;;;;4.13;0.43;;;;;;;;;;5090752;28;20035;-73
2022/03/30 12:09:48;;;;;;;5.35;0.50;;;;;;;;;;5090779;28;20020;-72
2022/03/30 12:12:28;;;;;;;1.52;0.40;;;;;;;;;;5085337;28;20396;-72
2022/03/30 12:14:57;;;;;;;3.00;0.73;;;;;;;;;;5071847;28;20023;-72
2022/03/30 12:17:24;;;;;;;3.83;0.50;;;;;;;;;;5088752;28;20544;-71
2022/03/30 12:19:51;;;;;;;4.80;1.02;;;;;;;;;;5125175;27;20052;-72
2022/03/30 12:22:18;;;;;;;24.63;4.95;;;;;;;;;;5087630;28;20034;-71
2022/03/30 12:24:44;;;;;;;8.60;1.80;;;;;;;;;;5092266;28;20038;-72
2022/03/30 12:27:11;;;;;;;8.93;0.60;;;;;;;;;;5090455;28;20472;-72
2022/03/30 12:29:38;;;;;;;2.95;0.70;;;;;;;;;;5072332;28;20038;-73
2022/03/30 12:32:04;;;;;;;3.80;1.08;;;;;;;;;;5084874;28;20053;-72
2022/03/30 12:34:33;;;;;;;4.75;0.95;;;;;;;;;;5082716;28;20036;-73
2022/03/30 12:37:01;;;;;;;4.22;0.50;;;;;;;;;;5085113;28;20153;-73
2022/03/30 12:39:32;;;;;;;4.80;1.17;;;;;;;;;;5078248;28;20024;-73
2022/03/30 12:42:08;;;;;;;6.43;0.80;;;;;;;;;;5091895;28;20036;-73
2022/03/30 12:44:39;;;;;;;2.60;0.70;;;;;;;;;;5088475;28;20024;-73
2022/03/30 12:47:06;;;;;;;2.50;0.80;;;;;;;;;;5076058;28;20112;-73
2022/03/30 12:49:44;;;;;;;2.75;0.80;;;;;;;;;;5092160;28;20369;-73
2022/03/30 12:52:14;;;;;;;4.82;0.77;;;;;;;;;;5110142;27;20072;-73
2022/03/30 12:54:41;;;;;;;4.72;0.70;;;;;;;;;;5077125;28;20072;-73
2022/03/30 12:57:08;;;;;;;6.47;0.80;;;;;;;;;;5110169;27;20161;-73
2022/03/30 12:59:34;;;;;;;4.43;0.90;;;;;;;;;;5087446;28;20538;-72
2022/03/30 13:02:16;;;;;;;4.47;1.10;;;;;;;;;;5090062;28;20040;-73
2022/03/30 13:04:48;;;;;;;4.37;0.80;;;;;;;;;;5091080;28;20028;-73
2022/03/30 13:07:16;;;;;;;;;;;;;;;;;;5091251;28;20124;-73
2022/03/30 13:10:01;;;;;;;4.10;0.70;;;;;;;;;;5088820;28;19999;-73
2022/03/30 13:12:34;;;;;;;3.63;0.55;;;;;;;;;;5104564;28;20594;-73
2022/03/30 13:15:04;;;;;;;5.70;1.27;;;;;;;;;;5086784;28;20043;-73
2022/03/30 13:17:30;;;;;;;3.92;0.40;;;;;;;;;;5118364;28;20028;-72
2022/03/30 13:20:00;;;;;;;4.57;1.00;;;;;;;;;;5085953;28;20027;-72
2022/03/30 13:22:28;;;;;;;4.50;0.73;;;;;;;;;;5091966;28;20047;-72
2022/03/30 13:24:54;;;;;;;5.90;0.98;;;;;;;;;;5089350;28;20039;-72
2022/03/30 13:27:20;;;;;;;8.05;1.08;;;;;;;;;;5091491;28;20468;-72
2022/03/30 13:29:47;;;;;;;6.72;1.00;;;;;;;;;;5101450;28;20497;-72
2022/03/30 13:32:13;;;;;;;4.68;0.90;;;;;;;;;;5090481;28;20044;-72
2022/03/30 13:34:39;;;;;;;2.67;0.75;;;;;;;;;;5089759;28;20032;-72
2022/03/30 13:37:05;;;;;;;4.40;0.60;;;;;;;;;;5080876;28;20115;-71
2022/03/30 13:39:32;;;;;;;4.10;1.00;;;;;;;;;;5073541;28;20059;-72
2022/03/30 13:41:58;;;;;;;7.05;0.85;;;;;;;;;;5090751;28;20040;-71
2022/03/30 13:44:25;;;;;;;2.15;0.60;;;;;;;;;;5089612;28;20502;-72
2022/03/30 13:46:52;;;;;;;3.50;0.57;;;;;;;;;;5070363;28;20414;-72
2022/03/30 13:49:40;;;;;;;2.05;0.63;;;;;;;;;;5087054;28;20051;-72
2022/03/30 13:52:04;;;;;;;4.35;0.90;;;;;;;;;;5092343;28;20044;-72
2022/03/30 13:54:30;;;;;;;6.05;0.68;;;;;;;;;;5087197;28;20052;-72
2022/03/30 13:56:56;;;;;;;6.88;1.52;;;;;;;;;;5091025;28;20081;-72
2022/03/30 13:59:22;;;;;;;4.25;0.70;;;;;;;;;;5090859;28;20368;-73
2022/03/30 14:01:49;;;;;;;2.33;0.40;;;;;;;;;;5090056;28;20372;-72
2022/03/30 14:04:15;;;;;;;7.15;1.13;;;;;;;;;;5096756;28;20395;-72
2022/03/30 14:06:46;;;;;;;7.22;0.90;;;;;;;;;;5086445;28;20043;-73
2022/03/30 14:09:12;;;;;;;5.45;0.80;;;;;;;;;;5104244;28;20084;-73
2022/03/30 14:11:38;;;;;;;8.25;0.70;;;;;;;;;;5089755;28;20032;-74
2022/03/30 14:14:05;;;;;;;2.75;0.70;;;;;;;;;;5078158;28;20047;-74
2022/03/30 14:16:31;;;;;;;5.32;0.70;;;;;;;;;;5070278;28;20073;-74
2022/03/30 14:18:57;;;;;;;6.45;2.28;;;;;;;;;;5069775;28;20039;-75
2022/03/30 14:21:23;;;;;;;14.05;4.95;;;;;;;;;;5086510;28;20040;-74
2022/03/30 14:23:49;;;;;;;20.73;10.27;;;;;;;;;;5083286;28;20031;-73
2022/03/30 14:26:15;;;;;;;6.03;0.93;;;;;;;;;;5078698;28;20464;-73
2022/03/30 14:28:41;;;;;;;4.40;0.98;;;;;;;;;;5086746;28;20039;-73
2022/03/30 14:31:08;;;;;;;3.35;1.05;;;;;;;;;;5091631;28;20028;-73
2022/03/30 14:33:35;;;;;;;3.83;1.23;;;;;;;;;;5073073;28;20048;-73
2022/03/30 14:36:01;;;;;;;4.28;0.88;;;;;;;;;;5079740;28;20107;-73
2022/03/30 14:38:27;;;;;;;3.42;0.60;;;;;;;;;;5084205;28;20028;-73
2022/03/30 14:40:54;;;;;;;2.17;0.70;;;;;;;;;;5089599;28;20056;-73
2022/03/30 14:43:21;;;;;;;5.88;2.15;;;;;;;;;;5084127;28;20032;-73
2022/03/30 14:45:47;;;;;;;3.53;0.80;;;;;;;;;;5091108;28;20028;-73